sensor_id;sensor_type;location;lat;lon;timestamp;P1;durP1;ratioP1;P2;durP2;ratioP2
10945;SDS011;5525;42.648;23.368;2023-04-25T00:02:10;5.47;;;4.88;;
10945;SDS011;5525;42.648;23.368;2023-04-25T00:04:38;5.88;;;5.18;;
10945;SDS011;5525;42.648;23.368;2023-04-25T00:07:05;5.75;;;5.25;;
10945;SDS011;5525;42.648;23.368;2023-04-25T00:09:32;5.95;;;5.30;;
10945;SDS011;5525;42.648;23.368;2023-04-25T00:11:59;6.88;;;5.78;;
10945;SDS011;5525;42.648;23.368;2023-04-25T00:14:26;6.70;;;5.97;;
10945;SDS011;5525;42.648;23.368;2023-04-25T00:16:53;6.03;;;5.43;;
10945;SDS011;5525;42.648;23.368;2023-04-25T00:19:20;8.07;;;5.90;;
10945;SDS011;5525;42.648;23.368;2023-04-25T00:21:48;6.43;;;5.82;;
10945;SDS011;5525;42.648;23.368;2023-04-25T00:24:15;6.20;;;5.45;;
10945;SDS011;5525;42.648;23.368;2023-04-25T00:26:41;6.55;;;5.60;;
10945;SDS011;5525;42.648;23.368;2023-04-25T00:29:08;5.93;;;5.03;;
10945;SDS011;5525;42.648;23.368;2023-04-25T00:31:35;5.95;;;5.35;;
10945;SDS011;5525;42.648;23.368;2023-04-25T00:34:01;5.95;;;5.22;;
10945;SDS011;5525;42.648;23.368;2023-04-25T00:36:28;7.13;;;5.32;;
10945;SDS011;5525;42.648;23.368;2023-04-25T00:38:56;5.95;;;4.97;;
10945;SDS011;5525;42.648;23.368;2023-04-25T00:41:23;6.95;;;5.35;;
10945;SDS011;5525;42.648;23.368;2023-04-25T00:43:52;8.07;;;6.43;;
10945;SDS011;5525;42.648;23.368;2023-04-25T00:46:20;7.55;;;6.70;;
10945;SDS011;5525;42.648;23.368;2023-04-25T00:48:47;9.23;;;7.18;;
10945;SDS011;5525;42.648;23.368;2023-04-25T00:51:15;7.50;;;6.60;;
10945;SDS011;5525;42.648;23.368;2023-04-25T00:53:45;8.25;;;6.65;;
10945;SDS011;5525;42.648;23.368;2023-04-25T00:56:14;8.45;;;7.15;;
10945;SDS011;5525;42.648;23.368;2023-04-25T00:58:41;7.75;;;6.40;;
10945;SDS011;5525;42.648;23.368;2023-04-25T01:01:08;7.88;;;6.50;;
10945;SDS011;5525;42.648;23.368;2023-04-25T01:03:37;6.22;;;5.55;;
10945;SDS011;5525;42.648;23.368;2023-04-25T01:06:05;6.13;;;5.28;;
10945;SDS011;5525;42.648;23.368;2023-04-25T01:08:33;6.25;;;5.47;;
10945;SDS011;5525;42.648;23.368;2023-04-25T01:11:00;7.13;;;5.75;;
10945;SDS011;5525;42.648;23.368;2023-04-25T01:13:28;6.72;;;6.00;;
10945;SDS011;5525;42.648;23.368;2023-04-25T01:15:55;7.30;;;5.57;;
10945;SDS011;5525;42.648;23.368;2023-04-25T01:18:22;6.90;;;5.25;;
10945;SDS011;5525;42.648;23.368;2023-04-25T01:20:49;6.38;;;5.68;;
10945;SDS011;5525;42.648;23.368;2023-04-25T01:23:18;7.32;;;6.25;;
10945;SDS011;5525;42.648;23.368;2023-04-25T01:25:46;5.78;;;5.15;;
10945;SDS011;5525;42.648;23.368;2023-04-25T01:28:13;6.18;;;5.18;;
10945;SDS011;5525;42.648;23.368;2023-04-25T01:30:40;5.80;;;5.10;;
10945;SDS011;5525;42.648;23.368;2023-04-25T01:33:07;5.60;;;4.93;;
10945;SDS011;5525;42.648;23.368;2023-04-25T01:35:34;5.55;;;4.93;;
10945;SDS011;5525;42.648;23.368;2023-04-25T01:38:01;6.05;;;4.85;;
10945;SDS011;5525;42.648;23.368;2023-04-25T01:40:29;5.13;;;4.63;;
10945;SDS011;5525;42.648;23.368;2023-04-25T01:42:57;5.68;;;4.30;;
10945;SDS011;5525;42.648;23.368;2023-04-25T01:45:24;5.25;;;4.70;;
10945;SDS011;5525;42.648;23.368;2023-04-25T01:47:51;5.15;;;4.65;;
10945;SDS011;5525;42.648;23.368;2023-04-25T01:50:18;5.93;;;5.30;;
10945;SDS011;5525;42.648;23.368;2023-04-25T01:52:45;6.47;;;5.40;;
10945;SDS011;5525;42.648;23.368;2023-04-25T01:55:12;5.75;;;4.85;;
10945;SDS011;5525;42.648;23.368;2023-04-25T01:57:40;6.25;;;5.43;;
10945;SDS011;5525;42.648;23.368;2023-04-25T02:00:07;7.03;;;5.50;;
10945;SDS011;5525;42.648;23.368;2023-04-25T02:02:35;6.68;;;5.97;;
10945;SDS011;5525;42.648;23.368;2023-04-25T02:05:02;7.20;;;6.20;;
10945;SDS011;5525;42.648;23.368;2023-04-25T02:07:29;7.60;;;6.68;;
10945;SDS011;5525;42.648;23.368;2023-04-25T02:09:55;8.32;;;6.20;;
10945;SDS011;5525;42.648;23.368;2023-04-25T02:12:22;8.82;;;6.65;;
10945;SDS011;5525;42.648;23.368;2023-04-25T02:14:50;8.40;;;6.63;;
10945;SDS011;5525;42.648;23.368;2023-04-25T02:17:17;8.25;;;6.90;;
10945;SDS011;5525;42.648;23.368;2023-04-25T02:19:44;7.72;;;6.88;;
10945;SDS011;5525;42.648;23.368;2023-04-25T02:22:11;9.30;;;7.32;;
10945;SDS011;5525;42.648;23.368;2023-04-25T02:24:37;7.25;;;6.47;;
10945;SDS011;5525;42.648;23.368;2023-04-25T02:27:04;7.70;;;6.43;;
10945;SDS011;5525;42.648;23.368;2023-04-25T02:29:31;7.13;;;6.40;;
10945;SDS011;5525;42.648;23.368;2023-04-25T02:31:59;10.73;;;7.05;;
10945;SDS011;5525;42.648;23.368;2023-04-25T02:34:26;8.77;;;6.90;;
10945;SDS011;5525;42.648;23.368;2023-04-25T02:36:52;7.60;;;6.80;;
10945;SDS011;5525;42.648;23.368;2023-04-25T02:39:20;8.00;;;6.72;;
10945;SDS011;5525;42.648;23.368;2023-04-25T02:41:47;8.38;;;6.85;;
10945;SDS011;5525;42.648;23.368;2023-04-25T02:44:13;9.18;;;7.47;;
10945;SDS011;5525;42.648;23.368;2023-04-25T02:46:40;9.05;;;7.20;;
10945;SDS011;5525;42.648;23.368;2023-04-25T02:49:08;8.43;;;6.82;;
10945;SDS011;5525;42.648;23.368;2023-04-25T02:51:35;10.23;;;7.60;;
10945;SDS011;5525;42.648;23.368;2023-04-25T02:54:01;10.18;;;8.10;;
10945;SDS011;5525;42.648;23.368;2023-04-25T02:56:28;10.52;;;8.32;;
10945;SDS011;5525;42.648;23.368;2023-04-25T02:58:55;10.55;;;8.07;;
10945;SDS011;5525;42.648;23.368;2023-04-25T03:01:22;10.20;;;8.52;;
10945;SDS011;5525;42.648;23.368;2023-04-25T03:03:49;10.10;;;8.52;;
10945;SDS011;5525;42.648;23.368;2023-04-25T03:06:17;8.85;;;7.80;;
10945;SDS011;5525;42.648;23.368;2023-04-25T03:08:43;10.18;;;8.40;;
10945;SDS011;5525;42.648;23.368;2023-04-25T03:11:10;10.02;;;8.00;;
10945;SDS011;5525;42.648;23.368;2023-04-25T03:13:37;11.70;;;8.60;;
10945;SDS011;5525;42.648;23.368;2023-04-25T03:16:03;10.68;;;8.20;;
10945;SDS011;5525;42.648;23.368;2023-04-25T03:18:30;11.02;;;8.07;;
10945;SDS011;5525;42.648;23.368;2023-04-25T03:20:57;9.38;;;8.05;;
10945;SDS011;5525;42.648;23.368;2023-04-25T03:23:26;12.52;;;8.75;;
10945;SDS011;5525;42.648;23.368;2023-04-25T03:25:52;11.25;;;8.32;;
10945;SDS011;5525;42.648;23.368;2023-04-25T03:28:19;10.30;;;8.43;;
10945;SDS011;5525;42.648;23.368;2023-04-25T03:30:46;10.80;;;7.78;;
10945;SDS011;5525;42.648;23.368;2023-04-25T03:33:12;9.77;;;8.10;;
10945;SDS011;5525;42.648;23.368;2023-04-25T03:35:39;9.40;;;8.13;;
10945;SDS011;5525;42.648;23.368;2023-04-25T03:38:07;8.80;;;7.47;;
10945;SDS011;5525;42.648;23.368;2023-04-25T03:40:35;12.27;;;8.25;;
10945;SDS011;5525;42.648;23.368;2023-04-25T03:43:02;9.20;;;7.97;;
10945;SDS011;5525;42.648;23.368;2023-04-25T03:45:29;9.80;;;8.35;;
10945;SDS011;5525;42.648;23.368;2023-04-25T03:47:56;9.52;;;7.25;;
10945;SDS011;5525;42.648;23.368;2023-04-25T03:50:23;9.60;;;7.43;;
10945;SDS011;5525;42.648;23.368;2023-04-25T03:52:50;9.65;;;7.68;;
10945;SDS011;5525;42.648;23.368;2023-04-25T03:55:16;9.02;;;7.68;;
10945;SDS011;5525;42.648;23.368;2023-04-25T03:57:45;11.23;;;8.95;;
10945;SDS011;5525;42.648;23.368;2023-04-25T04:00:12;10.90;;;8.15;;
10945;SDS011;5525;42.648;23.368;2023-04-25T04:02:39;9.80;;;8.55;;
10945;SDS011;5525;42.648;23.368;2023-04-25T04:05:06;10.93;;;8.98;;
10945;SDS011;5525;42.648;23.368;2023-04-25T04:07:33;11.77;;;8.45;;
10945;SDS011;5525;42.648;23.368;2023-04-25T04:10:05;11.02;;;8.68;;
10945;SDS011;5525;42.648;23.368;2023-04-25T04:12:32;11.68;;;8.90;;
10945;SDS011;5525;42.648;23.368;2023-04-25T04:15:00;12.32;;;9.77;;
10945;SDS011;5525;42.648;23.368;2023-04-25T04:17:28;11.23;;;9.65;;
10945;SDS011;5525;42.648;23.368;2023-04-25T04:19:54;11.63;;;10.00;;
10945;SDS011;5525;42.648;23.368;2023-04-25T04:22:21;10.27;;;8.75;;
10945;SDS011;5525;42.648;23.368;2023-04-25T04:24:49;9.90;;;8.57;;
10945;SDS011;5525;42.648;23.368;2023-04-25T04:27:16;9.32;;;8.38;;
10945;SDS011;5525;42.648;23.368;2023-04-25T04:29:44;8.20;;;7.32;;
10945;SDS011;5525;42.648;23.368;2023-04-25T04:32:12;9.45;;;7.45;;
10945;SDS011;5525;42.648;23.368;2023-04-25T04:34:39;10.70;;;8.50;;
10945;SDS011;5525;42.648;23.368;2023-04-25T04:37:06;11.02;;;8.38;;
10945;SDS011;5525;42.648;23.368;2023-04-25T04:39:34;9.27;;;7.95;;
10945;SDS011;5525;42.648;23.368;2023-04-25T04:42:01;8.65;;;7.47;;
10945;SDS011;5525;42.648;23.368;2023-04-25T04:44:30;8.13;;;7.28;;
10945;SDS011;5525;42.648;23.368;2023-04-25T04:46:57;8.63;;;7.57;;
10945;SDS011;5525;42.648;23.368;2023-04-25T04:49:25;8.32;;;7.53;;
10945;SDS011;5525;42.648;23.368;2023-04-25T04:51:52;9.57;;;8.32;;
10945;SDS011;5525;42.648;23.368;2023-04-25T04:54:19;10.43;;;9.18;;
10945;SDS011;5525;42.648;23.368;2023-04-25T04:56:46;10.82;;;8.68;;
10945;SDS011;5525;42.648;23.368;2023-04-25T04:59:13;10.38;;;8.48;;
10945;SDS011;5525;42.648;23.368;2023-04-25T05:01:40;8.90;;;8.00;;
10945;SDS011;5525;42.648;23.368;2023-04-25T05:04:06;8.23;;;7.00;;
10945;SDS011;5525;42.648;23.368;2023-04-25T05:06:34;8.38;;;7.45;;
10945;SDS011;5525;42.648;23.368;2023-04-25T05:09:01;7.60;;;6.80;;
10945;SDS011;5525;42.648;23.368;2023-04-25T05:11:28;7.47;;;6.57;;
10945;SDS011;5525;42.648;23.368;2023-04-25T05:13:55;7.85;;;6.70;;
10945;SDS011;5525;42.648;23.368;2023-04-25T05:16:22;8.70;;;7.00;;
10945;SDS011;5525;42.648;23.368;2023-04-25T05:18:48;8.95;;;7.90;;
10945;SDS011;5525;42.648;23.368;2023-04-25T05:21:15;8.75;;;7.68;;
10945;SDS011;5525;42.648;23.368;2023-04-25T05:23:43;8.50;;;7.60;;
10945;SDS011;5525;42.648;23.368;2023-04-25T05:26:10;8.98;;;7.38;;
10945;SDS011;5525;42.648;23.368;2023-04-25T05:28:38;8.90;;;7.45;;
10945;SDS011;5525;42.648;23.368;2023-04-25T05:31:05;9.02;;;7.90;;
10945;SDS011;5525;42.648;23.368;2023-04-25T05:33:32;10.10;;;8.82;;
10945;SDS011;5525;42.648;23.368;2023-04-25T05:35:59;11.50;;;9.18;;
10945;SDS011;5525;42.648;23.368;2023-04-25T05:38:26;10.20;;;8.77;;
10945;SDS011;5525;42.648;23.368;2023-04-25T05:40:54;9.23;;;8.23;;
10945;SDS011;5525;42.648;23.368;2023-04-25T05:43:20;11.35;;;8.85;;
10945;SDS011;5525;42.648;23.368;2023-04-25T05:45:47;9.50;;;8.38;;
10945;SDS011;5525;42.648;23.368;2023-04-25T05:48:14;9.68;;;8.68;;
10945;SDS011;5525;42.648;23.368;2023-04-25T05:50:41;10.95;;;8.73;;
10945;SDS011;5525;42.648;23.368;2023-04-25T05:53:08;9.13;;;8.10;;
10945;SDS011;5525;42.648;23.368;2023-04-25T05:55:35;9.43;;;7.90;;
10945;SDS011;5525;42.648;23.368;2023-04-25T05:58:04;7.80;;;6.65;;
10945;SDS011;5525;42.648;23.368;2023-04-25T06:00:31;8.15;;;7.00;;
10945;SDS011;5525;42.648;23.368;2023-04-25T06:02:58;8.63;;;6.97;;
10945;SDS011;5525;42.648;23.368;2023-04-25T06:05:26;9.00;;;6.93;;
10945;SDS011;5525;42.648;23.368;2023-04-25T06:07:53;7.20;;;6.47;;
10945;SDS011;5525;42.648;23.368;2023-04-25T06:10:21;7.55;;;6.72;;
10945;SDS011;5525;42.648;23.368;2023-04-25T06:12:48;7.40;;;6.38;;
10945;SDS011;5525;42.648;23.368;2023-04-25T06:15:16;6.28;;;5.68;;
10945;SDS011;5525;42.648;23.368;2023-04-25T06:17:43;7.57;;;5.75;;
10945;SDS011;5525;42.648;23.368;2023-04-25T06:20:10;7.60;;;6.82;;
10945;SDS011;5525;42.648;23.368;2023-04-25T06:22:37;6.40;;;5.80;;
10945;SDS011;5525;42.648;23.368;2023-04-25T06:25:04;6.65;;;5.55;;
10945;SDS011;5525;42.648;23.368;2023-04-25T06:27:32;6.30;;;5.70;;
10945;SDS011;5525;42.648;23.368;2023-04-25T06:29:59;6.60;;;6.00;;
10945;SDS011;5525;42.648;23.368;2023-04-25T06:32:26;6.82;;;5.90;;
10945;SDS011;5525;42.648;23.368;2023-04-25T06:34:54;6.93;;;6.28;;
10945;SDS011;5525;42.648;23.368;2023-04-25T06:37:21;8.70;;;5.97;;
10945;SDS011;5525;42.648;23.368;2023-04-25T06:39:48;7.25;;;6.55;;
10945;SDS011;5525;42.648;23.368;2023-04-25T06:42:15;7.30;;;6.20;;
10945;SDS011;5525;42.648;23.368;2023-04-25T06:44:41;5.75;;;5.20;;
10945;SDS011;5525;42.648;23.368;2023-04-25T06:47:08;6.47;;;4.68;;
10945;SDS011;5525;42.648;23.368;2023-04-25T06:49:36;4.85;;;4.45;;
10945;SDS011;5525;42.648;23.368;2023-04-25T06:52:03;7.03;;;6.43;;
10945;SDS011;5525;42.648;23.368;2023-04-25T06:54:30;6.28;;;5.55;;
10945;SDS011;5525;42.648;23.368;2023-04-25T06:56:56;6.63;;;5.32;;
10945;SDS011;5525;42.648;23.368;2023-04-25T06:59:23;5.85;;;5.20;;
10945;SDS011;5525;42.648;23.368;2023-04-25T07:01:50;5.30;;;4.80;;
10945;SDS011;5525;42.648;23.368;2023-04-25T07:04:16;6.18;;;5.28;;
10945;SDS011;5525;42.648;23.368;2023-04-25T07:06:44;4.90;;;4.50;;
10945;SDS011;5525;42.648;23.368;2023-04-25T07:09:12;5.35;;;4.63;;
10945;SDS011;5525;42.648;23.368;2023-04-25T07:11:39;5.32;;;4.70;;
10945;SDS011;5525;42.648;23.368;2023-04-25T07:14:06;4.68;;;4.13;;
10945;SDS011;5525;42.648;23.368;2023-04-25T07:16:32;4.68;;;4.28;;
10945;SDS011;5525;42.648;23.368;2023-04-25T07:18:59;7.05;;;4.97;;
10945;SDS011;5525;42.648;23.368;2023-04-25T07:21:26;6.25;;;4.55;;
10945;SDS011;5525;42.648;23.368;2023-04-25T07:23:54;6.90;;;5.03;;
10945;SDS011;5525;42.648;23.368;2023-04-25T07:26:20;6.70;;;6.05;;
10945;SDS011;5525;42.648;23.368;2023-04-25T07:28:47;6.97;;;5.75;;
10945;SDS011;5525;42.648;23.368;2023-04-25T07:31:15;6.45;;;5.85;;
10945;SDS011;5525;42.648;23.368;2023-04-25T07:33:43;7.43;;;5.70;;
10945;SDS011;5525;42.648;23.368;2023-04-25T07:36:10;6.03;;;5.20;;
10945;SDS011;5525;42.648;23.368;2023-04-25T07:38:37;7.45;;;6.15;;
10945;SDS011;5525;42.648;23.368;2023-04-25T07:41:05;5.97;;;5.45;;
10945;SDS011;5525;42.648;23.368;2023-04-25T07:43:32;6.75;;;5.68;;
10945;SDS011;5525;42.648;23.368;2023-04-25T07:45:59;6.40;;;5.15;;
10945;SDS011;5525;42.648;23.368;2023-04-25T07:48:25;7.00;;;5.95;;
10945;SDS011;5525;42.648;23.368;2023-04-25T07:50:52;6.20;;;5.60;;
10945;SDS011;5525;42.648;23.368;2023-04-25T07:53:19;6.82;;;6.05;;
10945;SDS011;5525;42.648;23.368;2023-04-25T07:55:45;6.22;;;5.10;;
10945;SDS011;5525;42.648;23.368;2023-04-25T07:58:13;6.75;;;5.53;;
10945;SDS011;5525;42.648;23.368;2023-04-25T08:00:41;6.13;;;5.45;;
10945;SDS011;5525;42.648;23.368;2023-04-25T08:03:09;6.30;;;5.70;;
10945;SDS011;5525;42.648;23.368;2023-04-25T08:05:36;8.18;;;6.68;;
10945;SDS011;5525;42.648;23.368;2023-04-25T08:08:03;6.38;;;5.78;;
10945;SDS011;5525;42.648;23.368;2023-04-25T08:10:31;6.50;;;5.90;;
10945;SDS011;5525;42.648;23.368;2023-04-25T08:12:58;6.32;;;5.22;;
10945;SDS011;5525;42.648;23.368;2023-04-25T08:15:26;7.68;;;5.50;;
10945;SDS011;5525;42.648;23.368;2023-04-25T08:17:53;5.97;;;4.70;;
10945;SDS011;5525;42.648;23.368;2023-04-25T08:20:19;18.95;;;6.30;;
10945;SDS011;5525;42.648;23.368;2023-04-25T08:22:46;7.60;;;4.88;;
10945;SDS011;5525;42.648;23.368;2023-04-25T08:25:13;6.38;;;4.30;;
10945;SDS011;5525;42.648;23.368;2023-04-25T08:27:40;8.50;;;3.90;;
10945;SDS011;5525;42.648;23.368;2023-04-25T08:30:07;4.65;;;4.15;;
10945;SDS011;5525;42.648;23.368;2023-04-25T08:32:36;5.53;;;4.20;;
10945;SDS011;5525;42.648;23.368;2023-04-25T08:35:04;4.15;;;3.10;;
10945;SDS011;5525;42.648;23.368;2023-04-25T08:37:31;6.32;;;3.88;;
10945;SDS011;5525;42.648;23.368;2023-04-25T08:39:58;3.97;;;3.35;;
10945;SDS011;5525;42.648;23.368;2023-04-25T08:42:26;3.85;;;2.92;;
10945;SDS011;5525;42.648;23.368;2023-04-25T08:44:53;4.70;;;3.67;;
10945;SDS011;5525;42.648;23.368;2023-04-25T08:47:21;3.67;;;3.22;;
10945;SDS011;5525;42.648;23.368;2023-04-25T08:49:50;11.65;;;3.90;;
10945;SDS011;5525;42.648;23.368;2023-04-25T08:52:21;4.13;;;2.90;;
10945;SDS011;5525;42.648;23.368;2023-04-25T08:54:49;3.10;;;2.80;;
10945;SDS011;5525;42.648;23.368;2023-04-25T08:57:17;4.10;;;2.72;;
10945;SDS011;5525;42.648;23.368;2023-04-25T08:59:45;3.90;;;2.92;;
10945;SDS011;5525;42.648;23.368;2023-04-25T09:02:13;5.40;;;3.03;;
10945;SDS011;5525;42.648;23.368;2023-04-25T09:04:42;4.30;;;3.88;;
10945;SDS011;5525;42.648;23.368;2023-04-25T09:07:10;5.53;;;5.03;;
10945;SDS011;5525;42.648;23.368;2023-04-25T09:09:37;6.70;;;5.20;;
10945;SDS011;5525;42.648;23.368;2023-04-25T09:12:05;5.88;;;5.00;;
10945;SDS011;5525;42.648;23.368;2023-04-25T09:14:31;7.57;;;4.70;;
10945;SDS011;5525;42.648;23.368;2023-04-25T09:16:59;6.07;;;5.30;;
10945;SDS011;5525;42.648;23.368;2023-04-25T09:19:28;9.35;;;6.20;;
10945;SDS011;5525;42.648;23.368;2023-04-25T09:21:57;6.97;;;6.30;;
10945;SDS011;5525;42.648;23.368;2023-04-25T09:24:33;6.70;;;6.10;;
10945;SDS011;5525;42.648;23.368;2023-04-25T09:27:05;7.15;;;5.88;;
10945;SDS011;5525;42.648;23.368;2023-04-25T09:29:32;8.35;;;5.68;;
10945;SDS011;5525;42.648;23.368;2023-04-25T09:32:16;6.00;;;5.43;;
10945;SDS011;5525;42.648;23.368;2023-04-25T09:34:45;5.82;;;5.30;;
10945;SDS011;5525;42.648;23.368;2023-04-25T09:37:17;6.35;;;5.35;;
10945;SDS011;5525;42.648;23.368;2023-04-25T09:39:47;6.53;;;5.45;;
10945;SDS011;5525;42.648;23.368;2023-04-25T09:42:14;5.80;;;5.28;;
10945;SDS011;5525;42.648;23.368;2023-04-25T09:44:42;7.28;;;5.43;;
10945;SDS011;5525;42.648;23.368;2023-04-25T09:47:10;5.15;;;4.65;;
10945;SDS011;5525;42.648;23.368;2023-04-25T09:49:38;6.47;;;5.28;;
10945;SDS011;5525;42.648;23.368;2023-04-25T09:52:07;6.03;;;5.22;;
10945;SDS011;5525;42.648;23.368;2023-04-25T09:54:34;5.78;;;5.20;;
10945;SDS011;5525;42.648;23.368;2023-04-25T09:57:04;5.68;;;5.00;;
10945;SDS011;5525;42.648;23.368;2023-04-25T09:59:38;8.98;;;5.40;;
10945;SDS011;5525;42.648;23.368;2023-04-25T10:02:08;5.68;;;4.80;;
10945;SDS011;5525;42.648;23.368;2023-04-25T10:04:36;6.00;;;4.80;;
10945;SDS011;5525;42.648;23.368;2023-04-25T10:07:05;5.38;;;4.88;;
10945;SDS011;5525;42.648;23.368;2023-04-25T10:09:32;5.82;;;4.97;;
10945;SDS011;5525;42.648;23.368;2023-04-25T10:12:01;6.07;;;5.03;;
10945;SDS011;5525;42.648;23.368;2023-04-25T10:14:31;5.38;;;4.68;;
10945;SDS011;5525;42.648;23.368;2023-04-25T10:16:57;5.55;;;4.97;;
10945;SDS011;5525;42.648;23.368;2023-04-25T10:19:25;6.65;;;4.90;;
10945;SDS011;5525;42.648;23.368;2023-04-25T10:21:52;7.68;;;4.63;;
10945;SDS011;5525;42.648;23.368;2023-04-25T10:24:24;7.45;;;4.43;;
10945;SDS011;5525;42.648;23.368;2023-04-25T10:26:52;2.30;;;2.05;;
10945;SDS011;5525;42.648;23.368;2023-04-25T10:29:23;3.15;;;1.65;;
10945;SDS011;5525;42.648;23.368;2023-04-25T10:31:51;1.88;;;1.05;;
10945;SDS011;5525;42.648;23.368;2023-04-25T10:34:19;2.13;;;1.20;;
10945;SDS011;5525;42.648;23.368;2023-04-25T10:36:50;1.25;;;1.15;;
10945;SDS011;5525;42.648;23.368;2023-04-25T10:39:21;0.95;;;0.85;;
10945;SDS011;5525;42.648;23.368;2023-04-25T10:41:53;0.98;;;0.90;;
10945;SDS011;5525;42.648;23.368;2023-04-25T10:44:23;4.85;;;2.75;;
10945;SDS011;5525;42.648;23.368;2023-04-25T10:46:54;1.40;;;1.13;;
10945;SDS011;5525;42.648;23.368;2023-04-25T10:49:29;2.38;;;1.60;;
10945;SDS011;5525;42.648;23.368;2023-04-25T10:52:24;2.78;;;1.55;;
10945;SDS011;5525;42.648;23.368;2023-04-25T10:54:53;4.40;;;3.15;;
10945;SDS011;5525;42.648;23.368;2023-04-25T10:57:30;2.78;;;2.40;;
10945;SDS011;5525;42.648;23.368;2023-04-25T11:00:06;3.60;;;2.80;;
10945;SDS011;5525;42.648;23.368;2023-04-25T11:02:42;2.72;;;2.30;;
10945;SDS011;5525;42.648;23.368;2023-04-25T11:05:15;3.42;;;2.20;;
10945;SDS011;5525;42.648;23.368;2023-04-25T11:07:49;3.20;;;2.40;;
10945;SDS011;5525;42.648;23.368;2023-04-25T11:10:17;2.55;;;1.80;;
10945;SDS011;5525;42.648;23.368;2023-04-25T11:12:45;2.47;;;1.52;;
10945;SDS011;5525;42.648;23.368;2023-04-25T11:15:14;5.57;;;2.13;;
10945;SDS011;5525;42.648;23.368;2023-04-25T11:17:41;4.03;;;2.20;;
10945;SDS011;5525;42.648;23.368;2023-04-25T11:20:10;2.35;;;1.67;;
10945;SDS011;5525;42.648;23.368;2023-04-25T11:22:38;1.90;;;1.50;;
10945;SDS011;5525;42.648;23.368;2023-04-25T11:25:07;2.20;;;1.60;;
10945;SDS011;5525;42.648;23.368;2023-04-25T11:27:37;3.55;;;1.40;;
10945;SDS011;5525;42.648;23.368;2023-04-25T11:30:14;2.63;;;1.48;;
10945;SDS011;5525;42.648;23.368;2023-04-25T11:32:42;2.28;;;1.60;;
10945;SDS011;5525;42.648;23.368;2023-04-25T11:35:09;2.15;;;1.95;;
10945;SDS011;5525;42.648;23.368;2023-04-25T11:37:36;4.00;;;2.00;;
10945;SDS011;5525;42.648;23.368;2023-04-25T11:40:06;3.78;;;2.22;;
10945;SDS011;5525;42.648;23.368;2023-04-25T11:42:36;3.80;;;2.30;;
10945;SDS011;5525;42.648;23.368;2023-04-25T11:45:06;4.07;;;2.40;;
10945;SDS011;5525;42.648;23.368;2023-04-25T11:47:36;3.60;;;2.55;;
10945;SDS011;5525;42.648;23.368;2023-04-25T11:50:03;4.38;;;2.65;;
10945;SDS011;5525;42.648;23.368;2023-04-25T11:52:36;4.10;;;2.80;;
10945;SDS011;5525;42.648;23.368;2023-04-25T11:55:04;6.07;;;2.80;;
10945;SDS011;5525;42.648;23.368;2023-04-25T11:57:32;7.72;;;3.92;;
10945;SDS011;5525;42.648;23.368;2023-04-25T12:00:05;2.80;;;1.60;;
10945;SDS011;5525;42.648;23.368;2023-04-25T12:02:37;1.45;;;1.00;;
10945;SDS011;5525;42.648;23.368;2023-04-25T12:05:07;1.98;;;1.10;;
10945;SDS011;5525;42.648;23.368;2023-04-25T12:07:34;1.48;;;0.90;;
10945;SDS011;5525;42.648;23.368;2023-04-25T12:10:04;1.20;;;1.10;;
10945;SDS011;5525;42.648;23.368;2023-04-25T12:12:35;2.45;;;1.55;;
10945;SDS011;5525;42.648;23.368;2023-04-25T12:15:09;2.75;;;1.70;;
10945;SDS011;5525;42.648;23.368;2023-04-25T12:17:39;1.95;;;1.20;;
10945;SDS011;5525;42.648;23.368;2023-04-25T12:20:07;1.40;;;1.20;;
10945;SDS011;5525;42.648;23.368;2023-04-25T12:22:34;1.10;;;1.00;;
10945;SDS011;5525;42.648;23.368;2023-04-25T12:25:02;2.10;;;1.00;;
10945;SDS011;5525;42.648;23.368;2023-04-25T12:27:30;1.60;;;1.20;;
10945;SDS011;5525;42.648;23.368;2023-04-25T12:29:58;3.50;;;1.10;;
10945;SDS011;5525;42.648;23.368;2023-04-25T12:32:25;2.35;;;1.40;;
10945;SDS011;5525;42.648;23.368;2023-04-25T12:34:53;1.42;;;1.10;;
10945;SDS011;5525;42.648;23.368;2023-04-25T12:37:20;1.45;;;1.00;;
10945;SDS011;5525;42.648;23.368;2023-04-25T12:39:47;2.38;;;1.00;;
10945;SDS011;5525;42.648;23.368;2023-04-25T12:42:14;2.58;;;1.30;;
10945;SDS011;5525;42.648;23.368;2023-04-25T12:44:41;1.10;;;1.00;;
10945;SDS011;5525;42.648;23.368;2023-04-25T12:47:08;1.23;;;1.13;;
10945;SDS011;5525;42.648;23.368;2023-04-25T12:49:34;2.22;;;1.20;;
10945;SDS011;5525;42.648;23.368;2023-04-25T12:52:03;3.97;;;1.30;;
10945;SDS011;5525;42.648;23.368;2023-04-25T12:54:30;2.20;;;1.35;;
10945;SDS011;5525;42.648;23.368;2023-04-25T12:56:56;2.97;;;1.20;;
10945;SDS011;5525;42.648;23.368;2023-04-25T12:59:24;5.60;;;1.60;;
10945;SDS011;5525;42.648;23.368;2023-04-25T13:01:50;2.97;;;1.40;;
10945;SDS011;5525;42.648;23.368;2023-04-25T13:04:18;4.50;;;1.10;;
10945;SDS011;5525;42.648;23.368;2023-04-25T13:06:46;2.97;;;1.30;;
10945;SDS011;5525;42.648;23.368;2023-04-25T13:09:14;3.20;;;1.10;;
10945;SDS011;5525;42.648;23.368;2023-04-25T13:11:41;2.45;;;1.15;;
10945;SDS011;5525;42.648;23.368;2023-04-25T13:14:08;3.05;;;1.30;;
10945;SDS011;5525;42.648;23.368;2023-04-25T13:16:34;1.85;;;1.10;;
10945;SDS011;5525;42.648;23.368;2023-04-25T13:19:01;2.05;;;1.40;;
10945;SDS011;5525;42.648;23.368;2023-04-25T13:21:29;2.13;;;1.40;;
10945;SDS011;5525;42.648;23.368;2023-04-25T13:23:57;3.72;;;1.42;;
10945;SDS011;5525;42.648;23.368;2023-04-25T13:26:25;4.65;;;1.70;;
10945;SDS011;5525;42.648;23.368;2023-04-25T13:28:52;5.63;;;1.50;;
10945;SDS011;5525;42.648;23.368;2023-04-25T13:31:18;2.38;;;1.70;;
10945;SDS011;5525;42.648;23.368;2023-04-25T13:33:46;5.25;;;1.65;;
10945;SDS011;5525;42.648;23.368;2023-04-25T13:36:13;2.10;;;1.80;;
10945;SDS011;5525;42.648;23.368;2023-04-25T13:38:39;2.88;;;1.65;;
10945;SDS011;5525;42.648;23.368;2023-04-25T13:41:08;2.30;;;1.92;;
10945;SDS011;5525;42.648;23.368;2023-04-25T13:43:37;2.85;;;1.80;;
10945;SDS011;5525;42.648;23.368;2023-04-25T13:46:04;2.17;;;1.98;;
10945;SDS011;5525;42.648;23.368;2023-04-25T13:48:31;2.70;;;1.88;;
10945;SDS011;5525;42.648;23.368;2023-04-25T13:50:57;2.83;;;1.65;;
10945;SDS011;5525;42.648;23.368;2023-04-25T13:53:24;2.88;;;1.70;;
10945;SDS011;5525;42.648;23.368;2023-04-25T13:55:51;2.08;;;1.60;;
10945;SDS011;5525;42.648;23.368;2023-04-25T13:58:18;2.85;;;2.05;;
10945;SDS011;5525;42.648;23.368;2023-04-25T14:00:47;2.45;;;2.13;;
10945;SDS011;5525;42.648;23.368;2023-04-25T14:03:13;2.65;;;1.60;;
10945;SDS011;5525;42.648;23.368;2023-04-25T14:05:40;2.05;;;1.40;;
10945;SDS011;5525;42.648;23.368;2023-04-25T14:08:08;8.02;;;3.50;;
10945;SDS011;5525;42.648;23.368;2023-04-25T14:10:35;3.15;;;1.50;;
10945;SDS011;5525;42.648;23.368;2023-04-25T14:13:03;2.28;;;1.10;;
10945;SDS011;5525;42.648;23.368;2023-04-25T14:15:31;1.33;;;1.23;;
10945;SDS011;5525;42.648;23.368;2023-04-25T14:17:59;3.08;;;1.50;;
10945;SDS011;5525;42.648;23.368;2023-04-25T14:20:27;3.58;;;1.50;;
10945;SDS011;5525;42.648;23.368;2023-04-25T14:22:54;1.00;;;0.88;;
10945;SDS011;5525;42.648;23.368;2023-04-25T14:25:21;1.10;;;1.00;;
10945;SDS011;5525;42.648;23.368;2023-04-25T14:27:48;1.50;;;1.10;;
10945;SDS011;5525;42.648;23.368;2023-04-25T14:30:16;1.13;;;0.88;;
10945;SDS011;5525;42.648;23.368;2023-04-25T14:32:43;2.08;;;1.10;;
10945;SDS011;5525;42.648;23.368;2023-04-25T14:35:12;1.30;;;1.20;;
10945;SDS011;5525;42.648;23.368;2023-04-25T14:37:38;1.10;;;1.00;;
10945;SDS011;5525;42.648;23.368;2023-04-25T14:40:06;1.35;;;1.20;;
10945;SDS011;5525;42.648;23.368;2023-04-25T14:42:35;1.20;;;1.10;;
10945;SDS011;5525;42.648;23.368;2023-04-25T14:45:02;1.85;;;1.33;;
10945;SDS011;5525;42.648;23.368;2023-04-25T14:47:29;1.50;;;1.40;;
10945;SDS011;5525;42.648;23.368;2023-04-25T14:49:56;2.17;;;1.48;;